KSFZ/SFZ METAR and TAF weather

Enter ICAO airport designator
Station Type Date Time Source
KSFZ METAR 2021/02/27 08:56 UTC NOAA

KSFZ 270856Z AUTO VRB04KT 10SM CLR 00/M02 A3041 RMK AO2 SLP247 T00001017 56022 FZRANO $


Station Type Date Time Source
KSFZ Decoded METAR 2021/02/27 08:56 UTC NOAA

Pawtucket, North Central State Airport, RI, United States (KSFZ) 41-55N 071-30W
Feb 27, 2021 - 03:56 AM EST / 2021.02.27 0856 UTC
Wind: Variable at 5 MPH (4 KT):0
Visibility: 10 mile(s):0
Sky conditions: clear
Temperature: 32.0 F (0.0 C)
Windchill: 26 F (-3 C):1
Dew Point: 28.9 F (-1.7 C)
Relative Humidity: 88%
Pressure (altimeter): 30.41 in. Hg (1029 hPa)
Pressure tendency: 0.06 inches (2.2 hPa) lower than three hours ago
ob: KSFZ 270856Z AUTO VRB04KT 10SM CLR 00/M02 A3041 RMK AO2 SLP247 T00001017 56022 FZRANO
cycle: 9

Station Type Date Time Source
KSFZ TAF UTC NOAA

Error!

Example: see airport list